This is the latest recevied weather packets stored in our database for station/object KQ5S-13. If no packets are shown the sender has not sent any weather packets the latest 10 day(s).
| Time | Temp. | Humidity | Pressure | Rain* | Wind** | Luminosity | Snow |
|---|---|---|---|---|---|---|---|
| 1777110615 | 17.22° C | 93% | 1009.1 hPa | 0 mm | - | 0 W/m² | - |
| 1777106417 | 17.22° C | 93% | 1009.1 hPa | 0 mm | - | 0 W/m² | - |
| 1777103417 | 17.78° C | 93% | 1008.9 hPa | 0.76 mm | - | 0 W/m² | - |
| 1777102219 | 17.78° C | 92% | 1009.1 hPa | 2.29 mm | - | 0 W/m² | - |
| 1777101017 | 17.78° C | 92% | 1009.2 hPa | 2.29 mm | - | 0 W/m² | - |
| 1777095617 | 18.89° C | 87% | 1010.7 hPa | 0.25 mm | - | 0 W/m² | - |
| 1777093817 | 19.44° C | 84% | 1011.2 hPa | 0.25 mm | - | 0 W/m² | - |
| 1777092016 | 19.44° C | 79% | 1010.8 hPa | 0 mm | - | 0 W/m² | - |
| 1777084815 | 19.44° C | 77% | 1010.1 hPa | 0 mm | - | 0 W/m² | - |
| 1777083615 | 20° C | 76% | 1010.2 hPa | 0 mm | - | 0 W/m² | - |
| 1777080018 | 21.11° C | 70% | 1009.9 hPa | 0 mm | - | 0 W/m² | - |
| 1777078817 | 22.22° C | 68% | 1009.7 hPa | 0 mm | - | 0 W/m² | - |
| 1777078218 | 22.22° C | 68% | 1009.7 hPa | 0 mm | - | 0 W/m² | - |
| 1777075818 | 23.33° C | 63% | 1009.9 hPa | 0 mm | - | 7 W/m² | - |
| 1777072217 | 25° C | 54% | 1010.4 hPa | 0 mm | - | 58 W/m² | - |
| 1777065638 | 26.11° C | 54% | 1010.3 hPa | 0 mm | - | 323 W/m² | - |
| 1777063817 | 26.11° C | 54% | 1010.5 hPa | 0 mm | - | 239 W/m² | - |
| 1777062637 | 25.56° C | 52% | 1010.7 hPa | 0 mm | - | 139 W/m² | - |
| 1777060817 | 25.56° C | 54% | 1011.3 hPa | 0 mm | - | 228 W/m² | - |
| 1777059637 | 25.56° C | 54% | 1011.5 hPa | 0 mm | - | 214 W/m² | - |
| 1777059017 | 25.56° C | 52% | 1011.6 hPa | 0 mm | - | 191 W/m² | - |
| 1777056617 | 25° C | 55% | 1012 hPa | 0 mm | - | 186 W/m² | - |
| 1777054817 | 25° C | 56% | 1012.4 hPa | 0 mm | - | 185 W/m² | - |
| 1777053616 | 25.56° C | 56% | 1012.6 hPa | 0 mm | - | 246 W/m² | - |
| 1777051816 | 25° C | 58% | 1012.8 hPa | 0 mm | - | 396 W/m² | - |
* Rain latest hour (hover to see other rain measurements)
** Current wind speed in m/s (hover to see current wind gust speed)